Latest Coastal Weather Observations for Troughton Island

IDW60701

Issued at 1:33 am WST Thursday 3 September 2026 (issued every 10 minutes, with the page automatically refreshed every 10 minutes)

About coastal observations | Map of coastal stations | Coastal observations for WA | Marine services | Other Formats
Station Details ID: 001007 Name: TROUGHTON ISLAND Lat: -13.75 Lon: 126.15 Height: 6.0 m
Data from the previous 72 hours. | See also: Recent months at Troughton Island
Date/Time
WST
Wind Sea
Height
m
Swell Vis
km
Cloud Weather Temp
°C
Press
MSL
hPa
Rain since
9am
mm
Dir  Spd
kts
Gust
kts
Height
m
Period
s
Dir
03/01:30am NW 8 9 - - - - - - - 25.2 1016.0 0.0
03/01:00am NW 8 9 - - - - - - - 25.2 1016.3 0.0
03/12:30am NNW 7 8 - - - - - - - 25.1 1016.6 0.0
03/12:00am NW 8 9 - - - - - - - 25.1 1016.7 0.0
 
Date/Time
WST
Wind Sea
Height
m
Swell Vis
km
Cloud Weather Temp
°C
Press
MSL
hPa
Rain since
9am
mm
Dir  Spd
kts
Gust
kts
Height
m
Period
s
Dir
02/11:30pm W 7 9 - - - - - - - 24.9 1016.8 0.0
02/11:00pm W 6 7 - - - - - - - 24.5 1016.9 0.0
02/10:30pm WNW 5 7 - - - - - - - 23.8 1016.9 0.0
02/10:00pm WNW 4 5 - - - - - - - 24.2 1016.9 0.0
02/09:30pm NW 6 6 - - - - - - - 24.4 1016.9 0.0
02/09:00pm NW 5 6 - - - - - - - 25.0 1016.9 0.0
02/08:30pm N 8 9 - - - - - - - 26.1 1016.8 0.0
02/08:00pm N 9 11 - - - - - - - 26.0 1016.8 0.0
02/07:30pm N 10 12 - - - - - - - 26.2 1016.4 0.0
02/07:00pm NNE 9 11 - - - - - - - 26.3 1016.1 0.0
02/06:30pm NNE 8 12 - - - - - - - 26.3 1016.0 0.0
02/06:00pm N 10 12 - - - - - - - 26.4 1015.6 0.0
02/05:30pm N 10 12 - - - - - - - 26.4 1015.2 0.0
02/05:00pm N 11 13 - - - - - - - 26.9 1015.0 0.0
02/04:30pm N 12 14 - - - - - - - 27.5 1014.7 0.0
02/04:00pm N 10 13 - - - - - - - 27.6 1014.6 0.0
02/03:30pm NNW 9 11 - - - - - - - 28.0 1014.2 0.0
02/03:00pm NW 10 13 - - - - - - - 29.4 1014.3 0.0
02/02:30pm NW 10 13 - - - - - - - 29.3 1014.3 0.0
02/02:00pm NNW 9 11 - - - - - - - 29.5 1014.6 0.0
02/01:30pm NNW 7 10 - - - - - - - 30.0 1014.9 0.0
02/01:00pm WNW 6 8 - - - - - - - 29.4 1015.3 0.0
02/12:30pm NE 4 7 - - - - - - - 30.7 1015.8 0.0
02/12:00pm NE 4 7 - - - - - - - 30.5 1016.2 0.0
02/11:30am NE 6 8 - - - - - - - 29.3 1016.9 0.0
02/11:00am E 6 8 - - - - - - - 29.4 1017.4 0.0
02/10:30am SE 6 8 - - - - - - - 30.0 1017.8 0.0
02/10:00am SSE 5 8 - - - - - - - 29.6 1017.9 0.0
02/09:30am SSE 6 8 - - - - - - - 29.1 1018.2 0.0
02/09:00am SSE 6 8 - - - - - - - 28.0 1018.2 0.0
02/08:30am SSE 7 9 - - - - - - - 28.2 1018.2 0.0
02/08:00am SSE 8 10 - - - - - - - 27.8 1018.0 0.0
02/07:30am S 8 9 - - - - - - - 27.2 1017.8 0.0
02/07:00am S 8 11 - - - - - - - 26.6 1017.7 0.0
02/06:30am S 9 11 - - - - - - - 25.4 1017.3 0.0
02/06:00am S 9 11 - - - - - - - 24.7 1017.1 0.0
02/05:30am S 8 10 - - - - - - - 24.4 1016.9 0.0
02/05:00am S 6 7 - - - - - - - 24.2 1016.7 0.0
02/04:30am S 6 7 - - - - - - - 24.1 1016.4 0.0
02/04:00am S 5 7 - - - - - - - 24.2 1016.3 0.0
02/03:30am S 5 6 - - - - - - - 24.2 1016.3 0.0
02/03:00am S 5 6 - - - - - - - 24.2 1016.2 0.0
02/02:30am S 5 6 - - - - - - - 24.4 1016.2 0.0
02/02:00am SSW 4 5 - - - - - - - 24.1 1016.2 0.0
02/01:30am SW 3 4 - - - - - - - 24.0 1016.3 0.0
02/01:00am SW 4 4 - - - - - - - 23.9 1016.5 0.0
02/12:30am CALM 0 0 - - - - - - - 23.9 1016.6 0.0
02/12:00am CALM 0 0 - - - - - - - 24.2 1016.9 0.0
 
Date/Time
WST
Wind Sea
Height
m
Swell Vis
km
Cloud Weather Temp
°C
Press
MSL
hPa
Rain since
9am
mm
Dir  Spd
kts
Gust
kts
Height
m
Period
s
Dir
01/11:30pm W 3 4 - - - - - - - 24.3 1017.0 0.0
01/11:00pm WNW 4 5 - - - - - - - 24.7 1017.1 0.0
01/10:30pm NW 1 4 - - - - - - - 24.8 1017.2 0.0
01/10:00pm CALM 0 0 - - - - - - - 24.8 1017.0 0.0
01/09:30pm CALM 0 2 - - - - - - - 24.5 1017.1 0.0
01/09:00pm NW 3 3 - - - - - - - 24.9 1017.0 0.0
01/08:30pm NW 5 5 - - - - - - - 25.3 1016.9 0.0
01/08:00pm NW 5 6 - - - - - - - 25.3 1016.8 0.0
01/07:30pm NW 5 6 - - - - - - - 25.0 1016.5 0.0
01/07:00pm NW 6 7 - - - - - - - 25.1 1016.3 0.0
01/06:30pm N 6 7 - - - - - - - 26.3 1015.8 0.0
01/06:00pm N 7 8 - - - - - - - 26.5 1015.5 0.0
01/05:30pm N 8 11 - - - - - - - 26.7 1015.3 0.0
01/05:00pm N 9 11 - - - - - - - 27.3 1015.2 0.0
01/04:30pm NNW 7 9 - - - - - - - 28.0 1015.0 0.0
01/04:00pm NW 8 10 - - - - - - - 28.3 1014.6 0.0
01/03:30pm NW 9 11 - - - - - - - 28.8 1014.5 0.0
01/03:00pm NW 9 11 - - - - - - - 29.1 1014.4 0.0
01/02:30pm NNW 9 11 - - - - - - - 29.3 1014.5 0.0
01/02:00pm NW 8 11 - - - - - - - 29.3 1014.8 0.0
01/01:30pm WNW 9 11 - - - - - - - 29.8 1015.2 0.0
01/01:00pm NW 7 9 - - - - - - - 29.8 1015.7 0.0
01/12:30pm NW 8 11 - - - - - - - 29.2 1016.2 0.0
01/12:00pm N 11 14 - - - - - - - 27.7 1016.9 0.0
01/11:30am NNE 11 14 - - - - - - - 28.6 1017.6 0.0
01/11:00am NNE 10 13 - - - - - - - 28.8 1018.0 0.0
01/10:30am NNE 8 11 - - - - - - - 29.5 1018.4 0.0
01/10:00am NE 8 11 - - - - - - - 28.9 1018.8 0.0
01/09:30am E 5 7 - - - - - - - 29.0 1018.9 0.0
01/09:00am E 5 7 - - - - - - - 28.5 1019.2 0.0
01/08:30am ESE 6 8 - - - - - - - 28.6 1019.3 0.0
01/08:00am SE 4 6 - - - - - - - 28.5 1018.9 0.0
01/07:30am SSW 2 4 - - - - - - - 27.9 1018.7 0.0
01/07:00am CALM 0 0 - - - - - - - 26.1 1018.5 0.0
01/06:30am SSW 3 4 - - - - - - - 24.2 1018.1 0.0
01/06:00am SSW 3 4 - - - - - - - 23.2 1018.0 0.0
01/05:30am SSW 2 3 - - - - - - - 22.9 1017.7 0.0
01/05:00am SSW 3 4 - - - - - - - 23.5 1017.4 0.0
01/04:30am SSW 1 4 - - - - - - - 23.5 1017.1 0.0
01/04:00am CALM 0 0 - - - - - - - 23.7 1016.9 0.0
01/03:30am CALM 0 0 - - - - - - - 24.0 1016.8 0.0
01/03:00am CALM 0 0 - - - - - - - 24.2 1016.7 0.0
01/02:30am SSW 3 3 - - - - - - - 24.0 1016.7 0.0
01/02:00am SSW 3 5 - - - - - - - 24.3 1016.7 0.0
01/01:30am N 5 6 - - - - - - - 24.6 1016.8 0.0
01/01:00am NNW 5 6 - - - - - - - 24.7 1017.0 0.0
01/12:30am NNW 6 7 - - - - - - - 25.1 1017.1 0.0
01/12:00am NNW 6 7 - - - - - - - 24.8 1017.4 0.0
 
Date/Time
WST
Wind Sea
Height
m
Swell Vis
km
Cloud Weather Temp
°C
Press
MSL
hPa
Rain since
9am
mm
Dir  Spd
kts
Gust
kts
Height
m
Period
s
Dir
31/11:30pm W 5 5 - - - - - - - 23.9 1017.6 0.0
31/11:00pm WNW 4 5 - - - - - - - 24.4 1017.7 0.0
31/10:30pm NW 4 4 - - - - - - - 24.0 1017.8 0.0
31/10:00pm NW 3 3 - - - - - - - 24.0 1017.7 0.0
31/09:30pm NW 1 4 - - - - - - - 24.6 1017.6 0.0
31/09:00pm CALM 0 0 - - - - - - - 24.8 1017.7 0.0
31/08:30pm NW 4 4 - - - - - - - 24.9 1017.7 0.0
31/08:00pm NNW 4 5 - - - - - - - 25.2 1017.5 0.0
31/07:30pm NNW 4 5 - - - - - - - 25.9 1017.1 0.0
31/07:00pm N 6 7 - - - - - - - 26.0 1016.6 0.0
31/06:30pm N 6 7 - - - - - - - 26.1 1016.2 0.0
31/06:00pm NW 5 7 - - - - - - - 26.1 1015.9 0.0
31/05:30pm NW 6 7 - - - - - - - 26.5 1015.7 0.0
31/05:00pm NNW 7 8 - - - - - - - 27.6 1015.3 0.0
31/04:30pm NNW 8 9 - - - - - - - 28.0 1015.2 0.0
31/04:00pm NNW 7 9 - - - - - - - 28.9 1015.1 0.0
31/03:30pm NW 8 10 - - - - - - - 28.9 1015.1 0.0
31/03:00pm NW 8 10 - - - - - - - 29.0 1015.2 0.0
31/02:30pm NW 7 9 - - - - - - - 29.7 1015.3 0.0
31/02:00pm NW 7 9 - - - - - - - 30.3 1015.7 0.0
31/01:30pm NW 6 7 - - - - - - - 29.4 1016.2 0.0
31/01:00pm NW 6 7 - - - - - - - 29.1 1016.7 0.0
31/12:30pm SW 6 7 - - - - - - - 29.6 1017.1 0.0
31/12:00pm NE 7 8 - - - - - - - 28.6 1017.5 0.0
31/11:30am ENE 6 8 - - - - - - - 29.0 1018.0 0.0
31/11:00am ESE 5 7 - - - - - - - 28.3 1018.4 0.0
31/10:30am NE 6 9 - - - - - - - 29.0 1018.9 0.0
31/10:00am NE 6 8 - - - - - - - 28.2 1019.1 0.0
31/09:30am E 6 7 - - - - - - - 28.5 1019.5 0.0
31/09:00am E 7 9 - - - - - - - 28.2 1019.7 0.0
31/08:30am ESE 7 10 - - - - - - - 28.5 1019.6 0.0
31/08:00am SSE 7 9 - - - - - - - 27.6 1019.1 0.0
31/07:30am S 7 10 - - - - - - - 27.3 1018.8 0.0
31/07:00am SSE 7 8 - - - - - - - 26.6 1018.6 0.0
31/06:30am S 6 8 - - - - - - - 25.6 1018.2 0.0
31/06:00am S 9 11 - - - - - - - 25.0 1017.7 0.0
31/05:30am S 9 11 - - - - - - - 24.9 1017.2 0.0
31/05:00am S 10 12 - - - - - - - 25.3 1016.9 0.0
31/04:30am SSW 11 13 - - - - - - - 25.2 1016.5 0.0
31/04:00am SSW 11 13 - - - - - - - 25.3 1016.4 0.0
31/03:30am SSW 10 12 - - - - - - - 25.4 1016.3 0.0
31/03:00am SSW 11 13 - - - - - - - 25.3 1016.2 0.0
31/02:30am SW 10 12 - - - - - - - 25.1 1016.1 0.0
31/02:00am SW 9 11 - - - - - - - 25.1 1016.1 0.0

Other formats

Comma delimited format used in spreadsheet applications
http://www.bom.gov.au/fwo/IDW60701/IDW60701.94102.axf

JavaScript Object Notation format (JSON) in row-major order
http://www.bom.gov.au/fwo/IDW60701/IDW60701.94102.json

Data quality

Most of these data are generated automatically and are frequently updated. Quality checks on data are not normally performed. It is possible for incorrect values to appear. Refer to information at About Latest Weather Observations and please check the disclaimer before using these data.